• Join FlightAware (Why Join?)
  • Login
  • US Flag 
06:54AM EDT


 

Airport Tracker/Info


-or-


 

Live Flight TrackerFlight Track Log ✈ SKW5195 ✈ 03-May-2013 ✈ KIAH - KCLT

Flight Track Log - Related Links

Times and Time Zones

All times are in EDT time to prevent confusion due to time zone crossing. See the SKW5195 flight status page for this flight to view local times or setup timezone preferences in your user account.

Time Position Orientation Groundspeed Altitude Reporting Facility
EDT Latitude Longitude Course Direction KTS MPH feet Rate Location/Type
02:38PM 29.9731 -95.3300 90° East 76 87 900  Level Houston Center
02:39PM 29.9181 -95.3031 157° South 272 313 3,300 1,500 Climbing Houston Center
02:40PM 29.9834 -94.8902 90° East  Level FlightAware Approximate
02:40PM 29.8936 -95.2414 115° Southeast 275 316 4,000  Level Houston Center
02:40PM 29.8831 -95.2206 120° Southeast 283 326 4,000  Level Houston Center
02:41PM 29.9834 -94.7425 90° East  Level FlightAware Approximate
02:41PM 29.8597 -95.1608 114° Southeast 278 320 4,000  Level Houston Center
02:42PM 29.9833 -94.5948 90° East  Level FlightAware Approximate
02:42PM 29.8594 -95.0767 90° East 267 307 6,800  Level Houston Center
02:43PM 29.9833 -94.4471 90° East  Level FlightAware Approximate
02:43PM 29.8819 -94.9886 74° East 284 327 9,200  Level Houston Center
02:44PM 29.9081 -94.8897 73° East 328 377 10,300 1,560 Climbing Houston Center
02:45PM 29.9378 -94.7733 74° East 373 429 12,500 2,160 Climbing Houston Center
02:46PM 29.9750 -94.6278 74° East 392 451 14,800 2,220 Climbing Houston Center
02:47PM 29.9903 -94.4961 82° East 411 473 17,100 1,740 Climbing Houston Center
02:48PM 29.9944 -94.3683 88° East 423 487 18,500 1,380 Climbing Houston Center
02:49PM 30.0067 -94.2286 84° East 440 506 20,000 1,680 Climbing Houston Center
02:50PM 30.0272 -94.0556 82° East 454 522 22,000 1,680 Climbing Houston Center
02:51PM 30.0464 -93.9086 81° East 463 533 23,500 1,320 Climbing Houston Center
02:52PM 30.0636 -93.7592 82° East 471 542 24,800 1,200 Climbing Houston Center
02:53PM 30.0817 -93.6067 82° East 484 557 26,000 960 Climbing Houston Center
02:54PM 30.1039 -93.4181 82° East 500 575 26,900 1,080 Climbing Houston Center
02:55PM 30.1233 -93.2589 82° East 508 585 28,300 1,560 Climbing Houston Center
02:56PM 30.1469 -93.1033 80° East 502 578 30,200 1,620 Climbing Houston Center
02:57PM 30.2131 -92.9739 59° Northeast 478 550 31,700 1,200 Climbing Houston Center
02:58PM 30.2667 -92.8353 66° East 482 555 32,700 1,020 Climbing Houston Center
02:59PM 30.3233 -92.6597 69° East 487 560 33,900 1,020 Climbing Houston Center
03:00PM 30.3742 -92.5144 68° East 488 562 34,900 840 Climbing Houston Center
03:01PM 30.4261 -92.3692 67° East 489 563 35,700 660 Climbing Houston Center
03:02PM 30.4769 -92.2197 68° East 488 562 36,300 480 Climbing Houston Center
03:04PM 30.5344 -92.0753 65° Northeast 498 573 36,800 480 Climbing Houston Center
03:05PM 30.6267 -91.9189 56° Northeast 497 572 37,400 600 Climbing Houston Center
03:06PM 30.7042 -91.7878 55° Northeast 496 571 38,100 660 Climbing Houston Center
03:07PM 30.7797 -91.6578 56° Northeast 492 566 38,800 420 Climbing Houston Center
03:08PM 30.8556 -91.5289 56° Northeast 487 560 39,000 60 Climbing Houston Center
03:09PM 30.9311 -91.3964 56° Northeast 490 564 39,000  Level Houston Center
03:10PM 31.0153 -91.2506 56° Northeast 493 567 39,000  Level Houston Center
03:11PM 31.0919 -91.1172 56° Northeast 494 568 39,000  Level Houston Center
03:12PM 31.1689 -90.9828 56° Northeast 497 572 39,000  Level Houston Center
03:13PM 31.2467 -90.8464 56° Northeast 500 575 39,000  Level Houston Center
03:14PM 31.3400 -90.6831 56° Northeast 503 579 39,000  Level Houston Center
03:15PM 31.4181 -90.5461 56° Northeast 504 580 39,000  Level Houston Center
03:16PM 31.4944 -90.4094 57° Northeast 502 578 39,000  Level Houston Center
03:17PM 31.5717 -90.2728 56° Northeast 501 577 39,000  Level Houston Center
03:18PM 31.6475 -90.1364 57° Northeast 499 574 39,000  Level Houston Center
03:19PM 31.7239 -89.9989 57° Northeast 501 577 39,000  Level Houston Center
03:20PM 31.8122 -89.8417 57° Northeast 499 574 39,000  Level Houston Center
03:21PM 31.8869 -89.7050 57° Northeast 498 573 39,000  Level Houston Center
03:22PM 31.9533 -89.5836 57° Northeast 498 573 39,000  Level Memphis Center
03:23PM 32.0317 -89.4433 57° Northeast 498 573 39,000  Level Memphis Center
03:24PM 32.1058 -89.3053 58° Northeast 498 573 39,000  Level Memphis Center
03:25PM 32.1797 -89.1719 57° Northeast 498 573 39,000  Level Memphis Center
03:26PM 32.2556 -89.0333 57° Northeast 493 567 39,000  Level Memphis Center
03:27PM 32.3294 -88.8994 57° Northeast 493 567 39,000  Level Memphis Center
03:28PM 32.4006 -88.7606 59° Northeast 493 567 39,000  Level Memphis Center
03:29PM 32.4636 -88.6239 61° Northeast 480 552 39,000  Level Memphis Center
03:30PM 32.5306 -88.4872 60° Northeast 474 545 39,000  Level Memphis Center
03:32PM 32.6658 -88.1989 61° Northeast 454 522 39,000  Level Atlanta Center
03:33PM 32.7286 -88.0661 61° Northeast 454 522 39,000  Level Atlanta Center
03:34PM 32.7875 -87.9253 64° Northeast 468 539 39,000  Level Atlanta Center
03:35PM 32.8522 -87.7897 60° Northeast 461 531 39,000  Level Atlanta Center
03:36PM 32.9106 -87.6561 62° Northeast 461 531 39,000  Level Atlanta Center
03:37PM 32.9706 -87.5225 62° Northeast 456 525 39,000  Level Atlanta Center
03:38PM 33.0242 -87.4008 62° Northeast 456 525 39,000  Level Atlanta Center
03:39PM 33.0861 -87.2644 62° Northeast 456 525 39,000  Level Atlanta Center
03:40PM 33.1481 -87.1278 62° Northeast 456 525 39,000  Level Atlanta Center
03:41PM 33.2164 -86.9836 60° Northeast 456 525 39,000  Level Atlanta Center
03:42PM 33.2553 -86.8358 72° East 453 521 39,000  Level Atlanta Center
03:43PM 33.2881 -86.6831 76° East 528 608 39,000  Level Atlanta Center
03:44PM 33.2989 -86.5639 84° East 481 554 39,000  Level Atlanta Center
03:45PM 33.3272 -86.3908 79° East 467 537 39,000  Level Atlanta Center
03:46PM 33.3508 -86.2447 79° East 454 522 39,000  Level Atlanta Center
03:47PM 33.3742 -86.1083 78° East 449 517 39,000  Level Atlanta Center
03:48PM 33.3975 -85.9522 80° East 447 514 39,000  Level Atlanta Center
03:49PM 33.4206 -85.8033 79° East 447 514 39,000  Level Atlanta Center
03:50PM 33.4389 -85.6794 80° East 434 499 39,000  Level Atlanta Center
03:51PM 33.4617 -85.5353 79° East 434 499 39,000  Level Atlanta Center
03:52PM 33.4842 -85.3911 79° East 444 511 39,000  Level Atlanta Center
03:53PM 33.5067 -85.2447 80° East 444 511 39,000  Level Atlanta Center
03:54PM 33.5308 -85.0981 79° East 444 511 39,000  Level Atlanta Center
03:55PM 33.5531 -84.9511 80° East 444 511 39,000  Level Atlanta Center
03:56PM 33.5728 -84.8067 81° East 444 511 39,000 -60 Level Atlanta Center
03:57PM 33.5967 -84.6447 80° East 451 519 38,900 -480 Descending Atlanta Center
03:58PM 33.6117 -84.5203 82° East 444 511 38,100 -900 Descending Atlanta Center
03:59PM 33.6456 -84.3731 75° East 439 505 37,100 -1,020 Descending Atlanta Center
04:00PM 33.6878 -84.2336 70° East 444 511 36,100 -1,020 Descending Atlanta Center
04:01PM 33.7275 -84.0861 72° East 461 531 35,100 -660 Descending Atlanta Center
04:02PM 33.7672 -83.9439 71° East 451 519 34,800 -720 Descending Atlanta Center
04:03PM 33.8067 -83.8014 72° East 446 513 33,700 -1,080 Descending Atlanta Center
04:04PM 33.8500 -83.6436 72° East 441 507 32,700 -1,020 Descending Atlanta Center
04:05PM 33.8911 -83.5008 71° East 441 507 31,700 -1,020 Descending Atlanta Center
04:06PM 33.9281 -83.3603 72° East 441 507 30,700 -1,020 Descending Atlanta Center
04:07PM 33.9669 -83.2197 72° East 446 513 29,700 -900 Descending Atlanta Center
04:08PM 34.0075 -83.0792 71° East 446 513 29,000 -360 Descending Atlanta Center
04:09PM 34.0439 -82.9358 73° East 446 513 29,000  Level Atlanta Center
04:10PM 34.0928 -82.7972 67° East 446 513 29,000 -300 Level Atlanta Center
04:11PM 34.1644 -82.6681 56° Northeast 446 513 28,400 -1,200 Descending Atlanta Center
04:12PM 34.2236 -82.5489 59° Northeast 452 520 26,700 -1,860 Descending Atlanta Center
04:13PM 34.2886 -82.4222 58° Northeast 452 520 24,700 -1,440 Descending Atlanta Center
04:14PM 34.3497 -82.2978 59° Northeast 446 513 23,900 -1,500 Descending Atlanta Center
04:15PM 34.4106 -82.1781 58° Northeast 427 491 21,800 -2,100 Descending Atlanta Center
04:16PM 34.4733 -82.0633 56° Northeast 422 486 19,700 -1,980 Descending Atlanta Center
04:17PM 34.5278 -81.9486 60° Northeast 400 460 17,900 -1,920 Descending Atlanta Center
04:18PM 34.5803 -81.8464 58° Northeast 378 435 15,900 -2,040 Descending Atlanta Center
04:19PM 34.6267 -81.7569 58° Northeast 341 392 13,900 -2,040 Descending Atlanta Center
04:20PM 34.6650 -81.6825 58° Northeast 309 356 12,500 -1,740 Descending Atlanta Center
04:20PM 34.6769 -81.6569 60° Northeast 319 367 12,200 -1,140 Descending Atlanta Center
04:21PM 34.6989 -81.6108 60° Northeast 291 335 11,600 -1,020 Descending Atlanta Center
04:21PM 34.7169 -81.5750 58° Northeast 292 336 11,200 -600 Descending Atlanta Center
04:22PM 34.7411 -81.5339 54° Northeast 275 316 11,000 -240 Descending Atlanta Center
04:22PM 34.7678 -81.5025 44° Northeast 278 320 11,000 -120 Level Atlanta Center
04:23PM 34.7961 -81.4589 52° Northeast 278 320 10,900 -420 Descending Atlanta Center
04:23PM 34.8142 -81.4303 52° Northeast 272 313 10,600 -1,020 Descending Atlanta Center
04:24PM 34.8422 -81.3714 60° Northeast 282 325 9,900 -1,020 Descending Atlanta Center
04:24PM 34.8564 -81.3481 53° Northeast 283 326 9,600 -1,020 Descending Atlanta Center
04:25PM 34.8883 -81.2836 59° Northeast 287 330 8,800 -1,020 Descending Atlanta Center
04:26PM 34.9011 -81.2022 79° East 262 302 7,900 -1,020 Descending Atlanta Center
04:26PM 34.9067 -81.1794 73° East 263 303 7,600 -1,440 Descending Atlanta Center
04:27PM 34.9281 -81.1128 69° East 247 284 6,300 -1,800 Descending Atlanta Center
04:28PM 34.9636 -81.0253 64° Northeast 246 283 4,100 -1,080 Descending Atlanta Center
04:29PM 35.0106 -80.9856 35° Northeast 232 267 4,000 -120 Descending Atlanta Center